Time;durP1;ratioP1;P1;durP2;ratioP2;P2;SDS_P1;SDS_P2;PMS_P1;PMS_P2;Temp;Humidity;BMP_temperature;BMP_pressure;BME280_temperature;BME280_humidity;BME280_pressure;Samples;Min_cycle;Max_cycle;Signal;HPM_P1;HPM_P2
2023/12/22 00:00:21;;;;;;;4.65;1.10;;;;;;;5.56;96.74;99260.91;5099054;28;19961;-77
2023/12/22 00:03:24;;;;;;;;;;;;;;;5.51;97.87;99262.91;5109011;28;20091;-77
2023/12/22 00:06:27;;;;;;;7.03;0.73;;;;;;;5.54;98.90;99248.03;5103401;28;20460;-77
2023/12/22 00:09:30;;;;;;;8.52;0.95;;;;;;;5.70;99.48;99261.03;5103244;28;20115;-77
2023/12/22 00:12:33;;;;;;;8.57;1.38;;;;;;;5.77;98.51;99267.56;5099452;28;20128;-77
2023/12/22 00:15:37;;;;;;;6.72;1.13;;;;;;;5.55;100.00;99246.25;5100848;28;20078;-78
2023/12/22 00:18:40;;;;;;;5.95;0.73;;;;;;;5.36;99.31;99249.81;5099302;28;20124;-78
2023/12/22 00:21:44;;;;;;;2.97;0.55;;;;;;;5.26;99.27;99234.81;5101482;28;20055;-78
2023/12/22 00:24:47;;;;;;;;;;;;;;;5.25;99.63;99244.34;5100580;28;20084;-79
2023/12/22 00:27:50;;;;;;;4.22;1.08;;;;;;;5.23;98.74;99266.06;5096932;28;19919;-79
2023/12/22 00:30:53;;;;;;;2.95;0.75;;;;;;;5.30;99.83;99233.75;5111426;28;20039;-79
2023/12/22 00:33:56;;;;;;;;;;;;;;;5.20;98.86;99223.03;5105949;28;20104;-78
2023/12/22 00:37:00;;;;;;;3.20;0.50;;;;;;;5.20;99.35;99215.25;5108580;28;19919;-79
2023/12/22 00:40:05;;;;;;;7.07;0.70;;;;;;;5.39;97.82;99202.16;5099360;28;20031;-79
2023/12/22 00:43:08;;;;;;;4.10;0.75;;;;;;;5.49;98.16;99202.53;5101417;28;20046;-79
2023/12/22 00:46:12;;;;;;;;;;;;;;;5.39;96.75;99214.28;5103664;28;20530;-79
2023/12/22 00:49:18;;;;;;;2.58;0.50;;;;;;;5.35;96.05;99232.56;5094482;28;19965;-79
2023/12/22 00:52:21;;;;;;;;;;;;;;;5.41;96.68;99238.38;5091186;28;20516;-78
2023/12/22 00:55:25;;;;;;;3.55;0.75;;;;;;;5.55;95.10;99235.88;5094108;28;19935;-78
2023/12/22 00:58:30;;;;;;;5.55;0.90;;;;;;;5.61;93.69;99214.81;5107504;28;20043;-78
2023/12/22 01:01:33;;;;;;;12.65;2.67;;;;;;;5.65;94.12;99254.41;5109980;28;20070;-79
2023/12/22 01:04:36;;;;;;;;;;;;;;;5.73;91.65;99297.19;5100959;28;20088;-78
2023/12/22 01:07:39;;;;;;;7.67;1.10;;;;;;;5.88;93.91;99346.59;5098660;28;19918;-79
2023/12/22 01:10:42;;;;;;;5.38;1.00;;;;;;;5.80;94.33;99358.19;5099609;28;20030;-79
2023/12/22 01:13:45;;;;;;;7.55;1.00;;;;;;;5.61;93.09;99336.69;5083061;28;20074;-79
2023/12/22 01:16:49;;;;;;;3.85;1.02;;;;;;;5.46;91.09;99358.25;5083385;28;20200;-79
2023/12/22 01:19:52;;;;;;;2.22;0.63;;;;;;;5.53;92.45;99362.19;5102718;28;20157;-79
2023/12/22 01:22:56;;;;;;;3.35;0.30;;;;;;;5.38;91.37;99361.19;5099956;28;20043;-79
2023/12/22 01:26:00;;;;;;;1.92;0.40;;;;;;;5.62;92.75;99386.84;5099093;28;20127;-79
2023/12/22 01:29:03;;;;;;;2.17;0.43;;;;;;;5.77;92.31;99391.22;5107483;28;20074;-79
2023/12/22 01:32:07;;;;;;;;;;;;;;;5.90;91.51;99383.66;5095395;28;20089;-79
2023/12/22 01:35:10;;;;;;;5.23;0.67;;;;;;;5.70;94.00;99369.94;5103811;28;19934;-79
2023/12/22 01:38:13;;;;;;;4.32;0.65;;;;;;;5.45;94.87;99367.75;5097533;28;20260;-79
2023/12/22 01:41:16;;;;;;;1.40;0.30;;;;;;;5.25;92.74;99371.31;5100053;28;20054;-79
2023/12/22 01:44:20;;;;;;;1.55;0.30;;;;;;;5.13;94.52;99370.16;5101697;28;20409;-79
2023/12/22 01:47:24;;;;;;;2.05;0.50;;;;;;;5.47;95.57;99372.88;5099119;28;20085;-79
2023/12/22 01:50:28;;;;;;;2.10;0.40;;;;;;;5.65;96.28;99361.59;5096584;28;20035;-79
2023/12/22 01:53:32;;;;;;;1.30;0.22;;;;;;;5.67;97.35;99354.53;5099369;28;20046;-79
2023/12/22 01:56:36;;;;;;;1.85;0.30;;;;;;;5.33;93.60;99345.06;5099479;28;20042;-79
2023/12/22 01:59:39;;;;;;;1.25;0.30;;;;;;;5.36;94.48;99368.22;5103419;28;20042;-79
2023/12/22 02:02:43;;;;;;;2.65;0.50;;;;;;;5.36;92.21;99350.09;5096612;28;20093;-79
2023/12/22 02:05:46;;;;;;;;;;;;;;;4.99;93.64;99358.81;5098587;28;20092;-79
2023/12/22 02:08:49;;;;;;;2.67;0.70;;;;;;;5.09;94.67;99357.44;5100544;28;20400;-78
2023/12/22 02:11:53;;;;;;;;;;;;;;;5.41;94.64;99344.66;5100123;28;20038;-78
2023/12/22 02:14:56;;;;;;;2.03;0.52;;;;;;;5.56;96.40;99351.69;5099414;28;19985;-79
2023/12/22 02:18:04;;;;;;;5.25;0.70;;;;;;;5.33;97.79;99361.44;5100146;28;20557;-79
2023/12/22 02:21:07;;;;;;;3.53;0.57;;;;;;;5.42;98.26;99348.91;5100648;28;20097;-79
2023/12/22 02:24:11;;;;;;;2.65;0.60;;;;;;;5.55;98.04;99349.97;5098967;28;20397;-79
2023/12/22 02:27:27;;;;;;;3.92;0.35;;;;;;;5.61;98.11;99344.47;5103480;28;20473;-79
2023/12/22 02:30:43;;;;;;;5.68;1.17;;;;;;;5.74;96.53;99342.97;5092645;28;20104;-79
2023/12/22 02:33:48;;;;;;;7.25;2.95;;;;;;;5.28;95.24;99334.88;5072365;28;20078;-79
2023/12/22 02:36:54;;;;;;;5.70;1.10;;;;;;;5.52;96.38;99311.22;5098772;28;20582;-78
2023/12/22 02:39:59;;;;;;;3.83;0.63;;;;;;;5.38;96.71;99321.47;5098232;28;20451;-79
2023/12/22 02:43:05;;;;;;;4.72;1.00;;;;;;;5.23;96.14;99325.66;5100230;28;20046;-79
2023/12/22 02:46:15;;;;;;;5.63;0.80;;;;;;;5.31;97.69;99331.31;5098125;28;20124;-79
2023/12/22 02:49:18;;;;;;;7.32;1.42;;;;;;;5.16;97.63;99332.91;5074039;28;20536;-78
2023/12/22 02:52:21;;;;;;;7.60;1.35;;;;;;;5.10;98.07;99330.59;5103965;28;20047;-78
2023/12/22 02:55:24;;;;;;;;;;;;;;;5.07;98.20;99322.97;5104643;28;20098;-78
2023/12/22 02:58:28;;;;;;;8.43;1.07;;;;;;;5.07;99.81;99333.34;5100983;28;19918;-79
2023/12/22 03:01:31;;;;;;;5.80;1.92;;;;;;;5.09;99.61;99347.91;5093882;28;20310;-79
2023/12/22 03:04:34;;;;;;;;;;;;;;;5.36;99.59;99340.53;5101184;28;20124;-79
2023/12/22 03:07:37;;;;;;;10.40;1.50;;;;;;;5.38;99.69;99356.00;5101484;28;19969;-79
2023/12/22 03:10:40;;;;;;;8.20;1.10;;;;;;;5.48;99.67;99343.44;5101568;28;20066;-79
2023/12/22 03:13:44;;;;;;;;;;;;;;;5.38;99.26;99339.63;5102312;28;20051;-79
2023/12/22 03:16:47;;;;;;;5.53;0.98;;;;;;;5.51;98.78;99332.91;5101228;28;19919;-79
2023/12/22 03:19:50;;;;;;;5.57;1.25;;;;;;;5.65;99.91;99339.97;5100824;28;20042;-79
2023/12/22 03:22:53;;;;;;;6.68;1.05;;;;;;;5.79;99.52;99325.41;5101747;28;20177;-77
2023/12/22 03:25:57;;;;;;;7.32;1.38;;;;;;;5.58;100.00;99339.44;5101832;28;20100;-78
2023/12/22 03:29:00;;;;;;;8.95;1.60;;;;;;;5.68;100.00;99342.41;5098005;28;20105;-79
2023/12/22 03:32:03;;;;;;;8.68;1.63;;;;;;;5.56;100.00;99321.38;5102687;28;20532;-77
2023/12/22 03:35:07;;;;;;;12.20;2.17;;;;;;;5.49;99.23;99320.03;5102963;28;20042;-78
2023/12/22 03:38:10;;;;;;;8.90;1.58;;;;;;;5.50;98.18;99300.13;5099501;28;20038;-79
2023/12/22 03:41:14;;;;;;;8.40;1.65;;;;;;;5.51;96.02;99296.59;5100671;28;20408;-79
2023/12/22 03:44:17;;;;;;;;;;;;;;;5.50;95.95;99284.56;5102000;28;20066;-79
2023/12/22 03:47:20;;;;;;;17.23;2.22;;;;;;;5.46;96.02;99267.50;5105450;28;19968;-79
2023/12/22 03:50:23;;;;;;;13.25;1.60;;;;;;;5.69;95.09;99271.50;5101366;28;20043;-79
2023/12/22 03:53:27;;;;;;;6.65;1.55;;;;;;;5.67;95.47;99291.47;5100205;28;20038;-79
2023/12/22 03:56:30;;;;;;;13.10;2.63;;;;;;;5.76;93.36;99289.25;5101203;28;20039;-80
2023/12/22 03:59:34;;;;;;;;;;;;;;;5.85;93.91;99320.81;5099445;28;20039;-79
2023/12/22 04:02:37;;;;;;;14.27;1.80;;;;;;;5.90;92.28;99324.81;5101788;28;19922;-79
2023/12/22 04:05:40;;;;;;;15.65;4.07;;;;;;;5.93;93.34;99323.88;5098028;28;20051;-79
2023/12/22 04:08:44;;;;;;;;;;;;;;;6.04;94.13;99321.56;5100106;28;20042;-79
2023/12/22 04:11:47;;;;;;;12.93;2.50;;;;;;;5.95;93.77;99316.84;5096084;28;19919;-82
2023/12/22 04:14:52;;;;;;;;;;;;;;;6.00;94.14;99317.47;5094431;28;20055;-78
2023/12/22 04:17:55;;;;;;;12.98;2.30;;;;;;;6.05;95.42;99323.22;5094685;28;20280;-79
2023/12/22 04:20:58;;;;;;;13.35;3.75;;;;;;;5.95;96.01;99327.22;5094164;28;20092;-79
2023/12/22 04:24:01;;;;;;;;;;;;;;;6.09;95.99;99314.34;5094901;28;20093;-79
2023/12/22 04:27:05;;;;;;;14.52;3.78;;;;;;;6.04;94.38;99321.56;5093841;28;20007;-79
2023/12/22 04:30:08;;;;;;;;;;;;;;;6.11;95.14;99322.91;5094856;28;20039;-79
2023/12/22 04:33:11;;;;;;;15.48;2.58;;;;;;;6.10;96.55;99326.44;5094435;28;20452;-79
2023/12/22 04:36:15;;;;;;;;;;;;;;;6.15;90.58;99314.03;5094778;28;20055;-79
2023/12/22 04:39:18;;;;;;;13.38;2.47;;;;;;;6.27;91.18;99339.34;5094063;28;20007;-79
2023/12/22 04:42:21;;;;;;;14.43;2.17;;;;;;;6.23;91.95;99342.19;5094196;28;20524;-79
2023/12/22 04:45:24;;;;;;;;;;;;;;;6.13;90.93;99341.84;5094555;28;20050;-79
2023/12/22 04:48:27;;;;;;;13.20;2.53;;;;;;;6.07;92.50;99344.75;5093972;28;20304;-79
2023/12/22 04:51:31;;;;;;;9.07;2.35;;;;;;;6.00;93.27;99333.03;5093813;28;20074;-78
2023/12/22 04:54:34;;;;;;;11.00;2.25;;;;;;;6.02;93.39;99329.41;5093952;28;20043;-80
2023/12/22 04:57:37;;;;;;;;;;;;;;;6.09;93.22;99324.72;5094371;28;20047;-80
2023/12/22 05:00:41;;;;;;;15.35;2.45;;;;;;;6.01;92.47;99324.31;5092817;28;19973;-80
2023/12/22 05:03:44;;;;;;;12.65;1.98;;;;;;;6.07;91.51;99328.34;5093819;28;20043;-85
2023/12/22 05:06:49;;;;;;;10.52;2.17;;;;;;;6.12;91.42;99321.97;5095007;28;20066;-84
2023/12/22 05:09:54;;;;;;;12.15;2.78;;;;;;;6.07;91.99;99326.59;5093671;28;20031;-82
2023/12/22 05:13:10;;;;;;;10.68;1.75;;;;;;;6.14;90.13;99334.88;5093495;28;20108;-83
2023/12/22 05:16:14;;;;;;;10.10;1.90;;;;;;;6.09;90.13;99316.94;5093760;28;20519;-81
2023/12/22 05:19:18;;;;;;;14.13;3.03;;;;;;;6.11;90.01;99309.94;5093536;28;20558;-80
2023/12/22 05:22:22;;;;;;;10.50;2.92;;;;;;;6.15;91.78;99324.41;5093696;28;20117;-81
2023/12/22 05:25:25;;;;;;;12.07;2.40;;;;;;;6.02;91.88;99313.00;5093205;28;20050;-81
2023/12/22 05:28:28;;;;;;;10.68;2.90;;;;;;;6.13;91.90;99326.25;5093318;28;20420;-82
2023/12/22 05:31:32;;;;;;;;;;;;;;;6.16;90.69;99320.03;5092713;28;20118;-81
2023/12/22 05:34:36;;;;;;;14.93;2.00;;;;;;;6.08;90.43;99322.22;5093293;28;19919;-83
2023/12/22 05:37:39;;;;;;;16.75;3.08;;;;;;;6.09;91.00;99335.09;5093222;28;20093;-79
2023/12/22 05:40:42;;;;;;;10.68;2.47;;;;;;;6.08;91.17;99314.44;5092984;28;20043;-79
2023/12/22 05:43:45;;;;;;;6.82;2.13;;;;;;;6.05;91.32;99318.03;5092184;28;20047;-79
2023/12/22 05:46:50;;;;;;;10.15;2.13;;;;;;;6.04;91.12;99337.13;5092496;28;20074;-79
2023/12/22 05:50:12;;;;;;;14.18;2.35;;;;;;;6.05;91.49;99355.19;5092154;28;20547;-81
2023/12/22 05:53:17;;;;;;;9.95;1.92;;;;;;;6.13;89.75;99364.38;5092844;28;20048;-80
2023/12/22 05:56:22;;;;;;;9.73;2.35;;;;;;;6.21;89.24;99354.41;5092204;28;20169;-78
2023/12/22 05:59:27;;;;;;;16.23;5.80;;;;;;;6.27;89.19;99354.06;5092266;28;20430;-79
2023/12/22 06:02:31;;;;;;;11.90;2.75;;;;;;;6.25;88.96;99367.16;5090515;28;20077;-80
2023/12/22 06:05:34;;;;;;;;;;;;;;;6.33;89.55;99368.50;5093232;28;20524;-80
2023/12/22 06:08:38;;;;;;;8.35;1.38;;;;;;;6.41;88.07;99358.50;5093100;28;20285;-79
2023/12/22 06:11:41;;;;;;;10.27;3.13;;;;;;;6.41;88.29;99358.50;5092587;28;20127;-79
2023/12/22 06:14:44;;;;;;;;;;;;;;;6.45;88.30;99362.66;5092565;28;20043;-80
2023/12/22 06:17:47;;;;;;;9.27;1.77;;;;;;;6.49;87.50;99349.41;5092701;28;20273;-80
2023/12/22 06:20:52;;;;;;;8.63;1.90;;;;;;;6.56;86.68;99362.88;5092630;28;20043;-80
2023/12/22 06:23:54;;;;;;;12.30;2.20;;;;;;;6.55;85.95;99353.44;5094479;28;20047;-80
2023/12/22 06:26:58;;;;;;;9.05;2.25;;;;;;;6.57;86.68;99338.59;5096876;28;20124;-81
2023/12/22 06:30:01;;;;;;;;;;;;;;;6.61;84.48;99354.88;5097210;28;20109;-81
2023/12/22 06:33:05;;;;;;;11.65;2.05;;;;;;;6.71;83.78;99363.81;5096825;28;20007;-80
2023/12/22 06:36:17;;;;;;;;;;;;;;;6.73;83.13;99352.44;5096187;28;20058;-80
2023/12/22 06:39:21;;;;;;;10.50;2.17;;;;;;;6.82;80.89;99355.44;5096419;28;19927;-81
2023/12/22 06:42:24;;;;;;;9.73;2.15;;;;;;;6.82;81.50;99355.44;5096567;28;20450;-79
2023/12/22 06:45:27;;;;;;;;;;;;;;;6.80;83.29;99362.50;5096691;28;20082;-80
2023/12/22 06:48:32;;;;;;;9.70;3.30;;;;;;;6.80;82.17;99365.91;5095969;28;19927;-79
2023/12/22 06:51:37;;;;;;;8.88;2.83;;;;;;;6.89;80.27;99369.75;5095627;28;20034;-80
2023/12/22 06:54:40;;;;;;;14.43;3.92;;;;;;;6.93;81.04;99358.28;5095870;28;20565;-79
2023/12/22 06:57:44;;;;;;;12.20;2.22;;;;;;;6.89;80.88;99349.81;5096374;28;20039;-79
2023/12/22 07:00:48;;;;;;;10.32;2.80;;;;;;;6.94;80.74;99355.59;5095177;28;20102;-81
2023/12/22 07:03:51;;;;;;;;;;;;;;;6.97;80.87;99359.78;5096631;28;20109;-80
2023/12/22 07:06:54;;;;;;;13.40;2.40;;;;;;;7.14;79.98;99371.81;5096089;28;19923;-80
2023/12/22 07:13:37;;;;;;;9.65;2.33;;;;;;;7.11;81.81;99414.41;5097017;28;20066;-80
2023/12/22 07:16:40;;;;;;;10.77;2.25;;;;;;;6.98;83.50;99408.22;5095860;28;20054;-82
2023/12/22 07:19:44;;;;;;;12.27;2.97;;;;;;;6.95;84.98;99401.44;5093568;28;20138;-81
2023/12/22 07:22:47;;;;;;;8.32;2.17;;;;;;;6.98;83.94;99422.06;5094068;28;20054;-82
2023/12/22 07:25:50;;;;;;;13.13;2.97;;;;;;;7.05;83.66;99435.56;5095054;28;20459;-81
2023/12/22 07:28:54;;;;;;;15.30;3.63;;;;;;;7.02;84.55;99455.66;5094172;28;20047;-82
2023/12/22 07:31:57;;;;;;;;;;;;;;;7.10;83.30;99437.91;5095681;28;20126;-82
2023/12/22 07:35:00;;;;;;;10.95;2.33;;;;;;;7.13;83.55;99432.53;5093462;28;19919;-82
2023/12/22 07:38:06;;;;;;;9.80;1.98;;;;;;;7.05;84.64;99440.78;5094645;28;20042;-82
2023/12/22 07:41:09;;;;;;;6.65;1.60;;;;;;;7.09;83.22;99447.47;5094440;28;20097;-82
2023/12/22 07:44:12;;;;;;;;;;;;;;;7.10;84.39;99443.94;5094593;28;20050;-81
2023/12/22 07:47:15;;;;;;;12.00;4.97;;;;;;;7.05;83.99;99451.16;5094312;28;19999;-81
2023/12/22 07:50:19;;;;;;;;;;;;;;;6.92;80.31;99463.13;5094835;28;20508;-82
2023/12/22 07:53:22;;;;;;;6.03;0.90;;;;;;;6.80;80.45;99469.00;5093942;28;19977;-82
2023/12/22 07:56:25;;;;;;;;;;;;;;;6.38;83.54;99481.56;5094222;28;20097;-83
2023/12/22 07:59:29;;;;;;;8.20;1.85;;;;;;;6.19;87.24;99486.00;5093677;28;20292;-82
2023/12/22 08:02:32;;;;;;;2.28;0.80;;;;;;;6.02;90.63;99513.66;5093280;28;20054;-81
2023/12/22 08:05:35;;;;;;;;;;;;;;;5.97;92.52;99486.28;5094483;28;20043;-81
2023/12/22 08:08:38;;;;;;;3.08;0.73;;;;;;;5.87;93.02;99469.44;5093897;28;20403;-81
2023/12/22 08:11:41;;;;;;;4.03;1.20;;;;;;;5.92;92.86;99480.44;5094000;28;20097;-81
2023/12/22 08:14:45;;;;;;;;;;;;;;;5.98;91.85;99477.56;5094334;28;20043;-80
2023/12/22 08:17:50;;;;;;;3.88;0.80;;;;;;;6.04;92.39;99485.03;5093694;28;19976;-82
2023/12/22 08:20:54;;;;;;;3.72;1.00;;;;;;;6.02;92.08;99484.25;5093435;28;20093;-80
2023/12/22 08:23:59;;;;;;;4.82;1.63;;;;;;;6.09;92.76;99477.84;5093822;28;20065;-81
2023/12/22 08:27:12;;;;;;;6.00;1.40;;;;;;;6.11;92.11;99481.22;5093782;28;20101;-80
2023/12/22 08:30:16;;;;;;;8.27;3.90;;;;;;;6.21;93.01;99477.22;5093751;28;20039;-80
2023/12/22 08:33:19;;;;;;;4.65;0.90;;;;;;;6.21;94.68;99472.03;5093289;28;20536;-81
2023/12/22 08:36:24;;;;;;;7.95;1.70;;;;;;;6.12;93.37;99469.91;5092652;28;20117;-81
2023/12/22 08:39:29;;;;;;;3.53;1.23;;;;;;;6.22;93.54;99450.38;5093523;28;20043;-82
2023/12/22 08:42:39;;;;;;;3.22;0.52;;;;;;;6.12;94.53;99461.28;5081046;28;20447;-81
2023/12/22 08:45:43;;;;;;;4.65;1.13;;;;;;;6.01;96.25;99461.84;5093063;28;20047;-80
2023/12/22 08:48:46;;;;;;;;;;;;;;;6.15;96.65;99471.50;5093384;28;20058;-80
2023/12/22 08:51:49;;;;;;;3.05;0.70;;;;;;;6.00;98.97;99486.13;5093321;28;20313;-78
2023/12/22 08:54:52;;;;;;;5.25;1.60;;;;;;;5.91;99.69;99494.31;5093056;28;20166;-79
2023/12/22 08:57:55;;;;;;;8.60;1.35;;;;;;;6.07;100.00;99491.84;5092892;28;20051;-78
2023/12/22 09:01:00;;;;;;;;;;;;;;;5.98;100.00;99490.53;5093063;28;20101;-78
2023/12/22 09:04:03;;;;;;;6.75;1.10;;;;;;;6.06;100.00;99485.78;5092745;28;19919;-77
2023/12/22 09:07:06;;;;;;;7.30;1.88;;;;;;;6.28;99.78;99473.41;5092671;28;20082;-78
2023/12/22 09:10:12;;;;;;;5.70;1.42;;;;;;;6.39;98.21;99474.63;5091746;28;20035;-79
2023/12/22 09:13:15;;;;;;;9.63;2.10;;;;;;;6.29;98.53;99477.69;5092741;28;20077;-82
2023/12/22 09:16:22;;;;;;;7.18;1.30;;;;;;;6.44;98.33;99464.81;5091615;28;20526;-77
2023/12/22 09:19:27;;;;;;;7.88;1.52;;;;;;;6.27;98.09;99453.56;5092333;28;20093;-82
2023/12/22 09:22:30;;;;;;;9.93;2.17;;;;;;;6.40;97.22;99455.50;5092392;28;20521;-77
2023/12/22 09:25:34;;;;;;;;;;;;;;;6.45;97.39;99456.13;5092962;28;20101;-77
2023/12/22 09:28:37;;;;;;;7.30;2.08;;;;;;;6.45;97.46;99469.94;5092156;28;19919;-81
2023/12/22 09:31:41;;;;;;;10.60;2.63;;;;;;;6.51;97.16;99466.19;5092265;28;20440;-78
2023/12/22 09:34:44;;;;;;;10.18;2.47;;;;;;;6.62;96.72;99469.06;5092226;28;20201;-84
2023/12/22 09:37:50;;;;;;;9.25;2.38;;;;;;;6.73;95.59;99461.53;5091390;28;20230;-75
2023/12/22 09:40:56;;;;;;;;;;;;;;;6.74;95.73;99462.38;5092509;28;20174;-77
2023/12/22 09:44:01;;;;;;;14.10;2.65;;;;;;;6.83;95.16;99455.81;5091960;28;20404;-77
2023/12/22 09:47:06;;;;;;;12.95;3.25;;;;;;;6.86;95.33;99455.66;5092125;28;20077;-78
2023/12/22 09:50:10;;;;;;;16.40;3.05;;;;;;;6.89;94.82;99458.97;5051636;28;20165;-78
2023/12/22 09:53:14;;;;;;;15.85;3.85;;;;;;;6.96;94.42;99446.47;5051641;28;20079;-77
2023/12/22 09:56:18;;;;;;;15.98;3.70;;;;;;;7.01;93.84;99447.03;5050755;28;20095;-78
2023/12/22 09:59:24;;;;;;;14.85;4.88;;;;;;;7.06;93.93;99446.81;5051052;28;20439;-78
2023/12/22 10:02:30;;;;;;;19.90;3.42;;;;;;;7.09;93.19;99441.44;5051663;28;20110;-77
2023/12/22 10:05:33;;;;;;;14.05;3.63;;;;;;;7.15;93.99;99441.94;5051412;28;20064;-77
2023/12/22 10:08:38;;;;;;;19.90;4.18;;;;;;;7.18;93.53;99425.34;5051922;28;20075;-78
2023/12/22 10:11:49;;;;;;;14.80;3.45;;;;;;;7.26;92.12;99411.91;5050523;28;20158;-78
2023/12/22 10:14:54;;;;;;;13.25;3.05;;;;;;;7.26;92.03;99407.53;5051454;28;20178;-77
2023/12/22 10:17:58;;;;;;;15.68;2.78;;;;;;;7.29;91.37;99402.16;5051649;28;20500;-76
2023/12/22 10:21:02;;;;;;;12.88;2.90;;;;;;;7.34;90.95;99405.34;5051452;28;20044;-77
2023/12/22 10:24:05;;;;;;;12.38;2.83;;;;;;;7.42;90.66;99399.69;5051496;28;20048;-76
2023/12/22 10:27:11;;;;;;;17.25;7.80;;;;;;;7.48;90.72;99396.75;5051484;28;20106;-77
2023/12/22 10:30:14;;;;;;;11.88;3.40;;;;;;;7.47;90.53;99397.69;5051588;28;20121;-77
2023/12/22 10:33:18;;;;;;;13.02;3.58;;;;;;;7.49;90.57;99388.00;5050004;28;20048;-77
2023/12/22 10:36:22;;;;;;;12.50;4.10;;;;;;;7.56;90.31;99378.06;5048772;28;20132;-77
2023/12/22 10:39:30;;;;;;;14.02;3.55;;;;;;;7.62;90.67;99359.50;5028262;28;20515;-77
2023/12/22 10:42:34;;;;;;;11.82;3.13;;;;;;;7.62;91.26;99356.91;5037899;28;20056;-79
2023/12/22 10:45:40;;;;;;;12.32;3.35;;;;;;;7.65;90.91;99352.38;5050458;28;20067;-77
2023/12/22 10:48:48;;;;;;;13.30;3.35;;;;;;;7.69;90.07;99345.25;5071546;28;20046;-77
2023/12/22 10:51:52;;;;;;;11.93;3.03;;;;;;;7.63;91.98;99354.25;5090861;28;20054;-79
2023/12/22 10:54:57;;;;;;;11.18;3.28;;;;;;;7.59;93.26;99341.47;5090931;28;20459;-76
2023/12/22 10:58:03;;;;;;;10.05;2.17;;;;;;;7.59;92.91;99339.72;5090897;28;20437;-76
2023/12/22 11:01:07;;;;;;;7.82;2.40;;;;;;;7.67;93.19;99321.06;5090738;28;20561;-76
2023/12/22 11:04:16;;;;;;;8.32;2.08;;;;;;;7.70;92.22;99318.28;5090908;28;20138;-75
2023/12/22 11:07:23;;;;;;;7.30;1.83;;;;;;;7.71;91.92;99324.31;5090793;28;20069;-77
2023/12/22 11:10:27;;;;;;;8.07;1.73;;;;;;;7.70;92.31;99323.50;5093553;28;20086;-77
2023/12/22 11:13:32;;;;;;;9.40;3.67;;;;;;;7.64;94.62;99319.47;5093589;28;20149;-75
2023/12/22 11:16:36;;;;;;;9.77;2.83;;;;;;;7.61;95.05;99321.44;5094788;28;20043;-75
2023/12/22 11:19:41;;;;;;;10.02;2.13;;;;;;;7.54;96.98;99317.53;5094641;28;20047;-76
2023/12/22 11:22:45;;;;;;;9.75;2.70;;;;;;;7.52;98.14;99309.78;5094206;28;20038;-76
2023/12/22 11:25:50;;;;;;;5.97;2.00;;;;;;;7.45;99.61;99317.13;5094577;28;20074;-76
2023/12/22 11:28:53;;;;;;;13.48;2.90;;;;;;;7.46;99.27;99304.94;5094436;28;20055;-75
2023/12/22 11:32:00;;;;;;;12.75;1.90;;;;;;;7.49;99.36;99294.38;5094463;28;20504;-75
2023/12/22 11:35:05;;;;;;;5.40;1.90;;;;;;;7.40;100.00;99284.50;5094294;28;20134;-75
2023/12/22 11:38:11;;;;;;;8.48;2.47;;;;;;;7.40;100.00;99287.09;5094048;28;20047;-76
2023/12/22 11:41:21;;;;;;;7.78;1.92;;;;;;;7.40;100.00;99289.72;5092183;28;20097;-76
2023/12/22 11:44:24;;;;;;;5.95;1.95;;;;;;;7.37;100.00;99297.69;5093792;28;20047;-76
2023/12/22 11:47:27;;;;;;;4.55;1.48;;;;;;;7.38;100.00;99292.41;5092685;28;20063;-76
2023/12/22 11:50:31;;;;;;;8.90;1.90;;;;;;;7.41;100.00;99294.84;5092987;28;20046;-76
2023/12/22 11:53:34;;;;;;;5.88;1.45;;;;;;;7.45;100.00;99288.50;5094055;28;20510;-76
2023/12/22 11:56:39;;;;;;;15.70;7.10;;;;;;;7.45;100.00;99280.72;5093225;28;20101;-76
2023/12/22 11:59:44;;;;;;;11.73;6.07;;;;;;;7.50;100.00;99279.59;5093087;28;20089;-77
2023/12/22 12:02:54;;;;;;;5.03;1.80;;;;;;;7.60;100.00;99275.53;5093354;28;20073;-76
2023/12/22 12:06:15;;;;;;;6.18;1.50;;;;;;;7.66;100.00;99281.22;5093520;28;20070;-75
2023/12/22 12:09:45;;;;;;;5.93;1.60;;;;;;;7.74;100.00;99266.91;5093785;28;20043;-76
2023/12/22 12:13:09;;;;;;;2.67;1.00;;;;;;;7.86;98.39;99272.19;5093924;28;20256;-78
2023/12/22 12:16:15;;;;;;;2.97;0.80;;;;;;;7.86;98.55;99277.41;5093906;28;20070;-77
2023/12/22 12:19:34;;;;;;;2.67;0.95;;;;;;;7.89;98.29;99260.75;5094071;28;20046;-77
2023/12/22 12:22:42;;;;;;;3.80;1.20;;;;;;;7.92;98.80;99255.38;5087532;28;20113;-77
2023/12/22 12:25:48;;;;;;;2.75;0.70;;;;;;;7.96;98.52;99262.06;5093832;28;20100;-76
2023/12/22 12:28:53;;;;;;;3.92;1.00;;;;;;;7.88;99.88;99253.88;5093319;28;20680;-77
2023/12/22 12:32:08;;;;;;;3.42;1.20;;;;;;;8.26;100.00;99261.06;5093142;28;20116;-73
2023/12/22 12:35:13;;;;;;;4.43;1.25;;;;;;;8.28;100.00;99256.59;5092384;28;20491;-74
2023/12/22 12:38:29;;;;;;;3.33;1.35;;;;;;;7.95;100.00;99260.38;5093503;28;20102;-76
2023/12/22 12:41:53;;;;;;;5.53;2.30;;;;;;;7.85;100.00;99261.88;5093424;28;20480;-76
2023/12/22 12:44:58;;;;;;;5.13;1.10;;;;;;;7.97;100.00;99242.88;5081222;28;20578;-77
2023/12/22 12:48:03;;;;;;;5.05;2.92;;;;;;;7.91;100.00;99258.88;5092911;28;20421;-75
2023/12/22 12:51:07;;;;;;;12.93;6.32;;;;;;;7.90;100.00;99257.22;5092804;28;20058;-75
2023/12/22 12:54:12;;;;;;;9.77;4.35;;;;;;;7.94;100.00;99261.31;5092584;28;20047;-75
2023/12/22 12:57:16;;;;;;;9.27;4.45;;;;;;;7.97;100.00;99268.91;5093251;28;20105;-77
2023/12/22 13:00:27;;;;;;;24.20;12.63;;;;;;;8.00;100.00;99268.72;5090686;28;20528;-77
2023/12/22 13:03:30;;;;;;;6.47;2.67;;;;;;;7.95;100.00;99273.41;5092793;28;20047;-75
2023/12/22 13:06:34;;;;;;;3.47;1.60;;;;;;;7.97;100.00;99284.53;5092935;28;20534;-74
2023/12/22 13:09:38;;;;;;;5.88;2.03;;;;;;;7.93;100.00;99283.06;5092792;28;20085;-75
2023/12/22 13:12:41;;;;;;;4.20;2.03;;;;;;;7.96;100.00;99275.06;5092917;28;20066;-76
2023/12/22 13:15:45;;;;;;;3.20;1.30;;;;;;;8.01;100.00;99265.22;5092773;28;20046;-75
2023/12/22 13:18:48;;;;;;;;;;;;;;;8.08;100.00;99270.88;5088290;28;20043;-76
2023/12/22 13:21:53;;;;;;;5.88;1.38;;;;;;;8.07;100.00;99274.41;5090729;28;20012;-76
2023/12/22 13:24:57;;;;;;;5.38;2.30;;;;;;;8.15;100.00;99262.59;5092363;28;20100;-81
2023/12/22 13:28:00;;;;;;;3.30;1.13;;;;;;;8.25;100.00;99277.63;5092256;28;20051;-75
2023/12/22 13:31:13;;;;;;;2.38;0.93;;;;;;;8.33;100.00;99259.78;5089574;28;20106;-73
2023/12/22 13:34:17;;;;;;;2.95;1.02;;;;;;;8.45;100.00;99264.22;5090660;28;20059;-75
2023/12/22 13:37:20;;;;;;;3.30;1.08;;;;;;;8.52;100.00;99273.34;5092197;28;20133;-75
2023/12/22 13:40:24;;;;;;;4.18;1.52;;;;;;;8.67;99.31;99260.25;5092028;28;20531;-78
2023/12/22 13:43:29;;;;;;;3.92;2.03;;;;;;;8.61;99.48;99259.72;5092022;28;20451;-75
2023/12/22 13:46:33;;;;;;;6.90;1.63;;;;;;;8.71;99.33;99269.53;5092416;28;20047;-76
2023/12/22 13:49:36;;;;;;;3.05;0.90;;;;;;;8.78;96.85;99273.44;5070991;28;20135;-76
2023/12/22 13:52:43;;;;;;;6.22;2.55;;;;;;;8.78;96.65;99257.78;5072091;28;20047;-76
2023/12/22 13:55:57;;;;;;;5.35;1.02;;;;;;;8.79;95.28;99249.84;5071281;28;20516;-78
2023/12/22 13:59:01;;;;;;;5.25;2.58;;;;;;;8.78;99.13;99247.38;5080258;28;20046;-76
2023/12/22 14:02:04;;;;;;;3.38;1.00;;;;;;;8.74;98.14;99240.66;5091759;28;20645;-77
2023/12/22 14:05:07;;;;;;;;;;;;;;;8.74;96.44;99236.31;5091722;28;20455;-77
2023/12/22 14:08:10;;;;;;;3.88;1.35;;;;;;;8.79;96.71;99222.97;5090967;28;19919;-77
2023/12/22 14:11:15;;;;;;;4.25;1.80;;;;;;;8.83;96.72;99220.03;5092085;28;20072;-77
2023/12/22 14:14:19;;;;;;;4.78;1.52;;;;;;;8.89;94.38;99226.63;5091868;28;20051;-77
2023/12/22 14:17:23;;;;;;;3.63;1.30;;;;;;;8.91;94.78;99229.97;5091957;28;20043;-77
2023/12/22 14:20:26;;;;;;;4.18;1.42;;;;;;;8.98;92.22;99228.63;5091824;28;20039;-77
2023/12/22 14:23:30;;;;;;;4.68;0.90;;;;;;;9.12;89.10;99253.78;5079658;28;20081;-78
2023/12/22 14:26:55;;;;;;;3.58;1.20;;;;;;;9.06;90.39;99255.03;5092208;28;20067;-77
2023/12/22 14:29:59;;;;;;;2.97;0.77;;;;;;;9.17;89.59;99271.75;5090906;28;20047;-78
2023/12/22 14:33:03;;;;;;;3.58;0.90;;;;;;;9.08;90.89;99247.09;5091865;28;20117;-78
2023/12/22 14:36:07;;;;;;;2.53;0.98;;;;;;;9.14;88.88;99245.88;5088799;28;20131;-77
2023/12/22 14:39:12;;;;;;;3.53;1.40;;;;;;;9.20;88.11;99251.50;5089624;28;20373;-77
2023/12/22 14:42:16;;;;;;;6.18;1.40;;;;;;;9.20;89.91;99271.53;5092395;28;20042;-76
2023/12/22 14:45:20;;;;;;;2.38;0.40;;;;;;;9.19;88.47;99267.25;5094951;28;20497;-79
2023/12/22 14:48:24;;;;;;;;;;;;;;;9.25;89.03;99270.31;5096280;28;20067;-80
2023/12/22 14:51:28;;;;;;;;;;;;;;;9.27;86.56;99264.97;5096349;28;20384;-78